sensor_id;sensor_type;location;lat;lon;timestamp;temperature;humidity
935;DHT22;454;53.254;10.400;2023-10-09T04:00:49;10.40;99.90
935;DHT22;454;53.254;10.400;2023-10-09T04:03:17;10.30;99.90
935;DHT22;454;53.254;10.400;2023-10-09T04:05:45;10.30;99.90
935;DHT22;454;53.254;10.400;2023-10-09T04:08:12;10.30;99.90
935;DHT22;454;53.254;10.400;2023-10-09T04:10:45;10.30;99.90
935;DHT22;454;53.254;10.400;2023-10-09T04:13:26;10.30;99.90
935;DHT22;454;53.254;10.400;2023-10-09T04:16:00;10.30;99.90
935;DHT22;454;53.254;10.400;2023-10-09T04:18:34;10.30;99.90
935;DHT22;454;53.254;10.400;2023-10-09T04:21:04;10.30;99.90
935;DHT22;454;53.254;10.400;2023-10-09T04:23:45;10.30;99.90
935;DHT22;454;53.254;10.400;2023-10-09T04:26:35;10.30;99.90
935;DHT22;454;53.254;10.400;2023-10-09T04:29:03;10.30;99.90
935;DHT22;454;53.254;10.400;2023-10-09T04:31:32;10.20;99.90
935;DHT22;454;53.254;10.400;2023-10-09T04:34:00;10.20;99.90
935;DHT22;454;53.254;10.400;2023-10-09T04:36:44;10.20;99.90
935;DHT22;454;53.254;10.400;2023-10-09T04:39:14;10.20;99.90
935;DHT22;454;53.254;10.400;2023-10-09T04:42:00;10.20;99.90
935;DHT22;454;53.254;10.400;2023-10-09T04:44:53;10.20;99.90
935;DHT22;454;53.254;10.400;2023-10-09T04:47:38;10.20;99.90
935;DHT22;454;53.254;10.400;2023-10-09T04:50:15;10.20;99.90
935;DHT22;454;53.254;10.400;2023-10-09T04:53:02;10.20;99.90
935;DHT22;454;53.254;10.400;2023-10-09T04:55:47;10.20;99.90
935;DHT22;454;53.254;10.400;2023-10-09T04:58:21;10.20;99.90
935;DHT22;454;53.254;10.400;2023-10-09T05:00:51;10.20;99.90
935;DHT22;454;53.254;10.400;2023-10-09T05:03:31;10.20;99.90
935;DHT22;454;53.254;10.400;2023-10-09T05:06:09;10.10;99.90
935;DHT22;454;53.254;10.400;2023-10-09T05:09:09;10.20;99.90
935;DHT22;454;53.254;10.400;2023-10-09T05:11:38;10.20;99.90
935;DHT22;454;53.254;10.400;2023-10-09T05:14:34;10.20;99.90
935;DHT22;454;53.254;10.400;2023-10-09T05:17:19;10.20;99.90
935;DHT22;454;53.254;10.400;2023-10-09T05:19:52;10.20;99.90
935;DHT22;454;53.254;10.400;2023-10-09T05:22:26;10.20;99.90
935;DHT22;454;53.254;10.400;2023-10-09T05:25:02;10.20;99.90
935;DHT22;454;53.254;10.400;2023-10-09T05:27:28;10.20;99.90
935;DHT22;454;53.254;10.400;2023-10-09T05:30:16;10.10;99.90
935;DHT22;454;53.254;10.400;2023-10-09T05:32:55;10.10;99.90
935;DHT22;454;53.254;10.400;2023-10-09T05:35:26;10.10;99.90
935;DHT22;454;53.254;10.400;2023-10-09T05:38:09;10.20;99.90
935;DHT22;454;53.254;10.400;2023-10-09T05:40:50;10.10;99.90
935;DHT22;454;53.254;10.400;2023-10-09T05:43:20;10.10;99.90
935;DHT22;454;53.254;10.400;2023-10-09T05:46:01;10.10;99.90
935;DHT22;454;53.254;10.400;2023-10-09T05:48:41;10.10;99.90
935;DHT22;454;53.254;10.400;2023-10-09T05:51:21;10.10;99.90
935;DHT22;454;53.254;10.400;2023-10-09T05:54:06;10.10;99.90
935;DHT22;454;53.254;10.400;2023-10-09T05:56:49;10.00;99.90
935;DHT22;454;53.254;10.400;2023-10-09T05:59:34;10.10;99.90
935;DHT22;454;53.254;10.400;2023-10-09T06:02:18;10.10;99.90
935;DHT22;454;53.254;10.400;2023-10-09T06:04:58;10.10;99.90
935;DHT22;454;53.254;10.400;2023-10-09T06:07:31;10.10;99.90
935;DHT22;454;53.254;10.400;2023-10-09T06:10:27;10.00;99.90
935;DHT22;454;53.254;10.400;2023-10-09T06:13:05;9.90;99.90
935;DHT22;454;53.254;10.400;2023-10-09T06:15:36;10.00;99.90
935;DHT22;454;53.254;10.400;2023-10-09T06:18:17;10.00;99.90
935;DHT22;454;53.254;10.400;2023-10-09T06:20:58;10.00;99.90
935;DHT22;454;53.254;10.400;2023-10-09T06:23:56;9.90;99.90
935;DHT22;454;53.254;10.400;2023-10-09T06:26:41;10.00;99.90
935;DHT22;454;53.254;10.400;2023-10-09T06:29:17;9.90;99.90
935;DHT22;454;53.254;10.400;2023-10-09T06:31:59;10.00;99.90
935;DHT22;454;53.254;10.400;2023-10-09T06:34:42;10.00;99.90
935;DHT22;454;53.254;10.400;2023-10-09T06:37:11;10.00;99.90
935;DHT22;454;53.254;10.400;2023-10-09T06:40:01;10.00;99.90
935;DHT22;454;53.254;10.400;2023-10-09T06:43:08;10.00;99.90
935;DHT22;454;53.254;10.400;2023-10-09T06:45:40;10.10;99.90
935;DHT22;454;53.254;10.400;2023-10-09T06:48:10;10.00;99.90
935;DHT22;454;53.254;10.400;2023-10-09T06:50:51;10.00;99.90
935;DHT22;454;53.254;10.400;2023-10-09T06:53:30;10.00;99.90
935;DHT22;454;53.254;10.400;2023-10-09T06:56:12;10.00;99.90
935;DHT22;454;53.254;10.400;2023-10-09T06:58:48;10.00;99.90
935;DHT22;454;53.254;10.400;2023-10-09T07:01:14;10.00;99.90
935;DHT22;454;53.254;10.400;2023-10-09T07:03:54;10.10;99.90
935;DHT22;454;53.254;10.400;2023-10-09T07:06:26;10.10;99.90
935;DHT22;454;53.254;10.400;2023-10-09T07:09:07;10.10;99.90
935;DHT22;454;53.254;10.400;2023-10-09T07:11:46;10.10;99.90
935;DHT22;454;53.254;10.400;2023-10-09T07:14:35;10.10;99.90
935;DHT22;454;53.254;10.400;2023-10-09T07:17:19;10.10;99.90
935;DHT22;454;53.254;10.400;2023-10-09T07:20:10;10.20;99.90
935;DHT22;454;53.254;10.400;2023-10-09T07:22:39;10.10;99.90
935;DHT22;454;53.254;10.400;2023-10-09T07:25:18;10.10;99.90
935;DHT22;454;53.254;10.400;2023-10-09T07:28:08;10.10;99.90
935;DHT22;454;53.254;10.400;2023-10-09T07:30:55;10.20;99.90
935;DHT22;454;53.254;10.400;2023-10-09T07:33:24;10.10;99.90
935;DHT22;454;53.254;10.400;2023-10-09T07:36:01;10.10;99.90
935;DHT22;454;53.254;10.400;2023-10-09T07:38:31;10.10;99.90
935;DHT22;454;53.254;10.400;2023-10-09T07:41:01;10.20;99.90
935;DHT22;454;53.254;10.400;2023-10-09T07:43:43;10.30;99.90
935;DHT22;454;53.254;10.400;2023-10-09T07:46:12;10.30;99.90
935;DHT22;454;53.254;10.400;2023-10-09T07:48:57;10.30;99.90
935;DHT22;454;53.254;10.400;2023-10-09T07:51:26;10.30;99.90
935;DHT22;454;53.254;10.400;2023-10-09T07:53:57;10.40;99.90
935;DHT22;454;53.254;10.400;2023-10-09T07:56:32;10.40;99.90
935;DHT22;454;53.254;10.400;2023-10-09T07:59:05;10.40;99.90
935;DHT22;454;53.254;10.400;2023-10-09T08:01:37;10.40;99.90
935;DHT22;454;53.254;10.400;2023-10-09T08:04:04;10.40;99.90
935;DHT22;454;53.254;10.400;2023-10-09T08:06:36;10.50;99.90
935;DHT22;454;53.254;10.400;2023-10-09T08:09:08;10.50;99.90
935;DHT22;454;53.254;10.400;2023-10-09T08:12:05;10.50;99.90
935;DHT22;454;53.254;10.400;2023-10-09T08:15:02;10.50;99.90
935;DHT22;454;53.254;10.400;2023-10-09T08:17:46;10.50;99.90
935;DHT22;454;53.254;10.400;2023-10-09T08:20:16;10.60;99.90
935;DHT22;454;53.254;10.400;2023-10-09T08:22:43;10.60;99.90
935;DHT22;454;53.254;10.400;2023-10-09T08:25:15;10.60;99.90
935;DHT22;454;53.254;10.400;2023-10-09T08:27:54;10.60;99.90
935;DHT22;454;53.254;10.400;2023-10-09T08:30:24;10.60;99.90
935;DHT22;454;53.254;10.400;2023-10-09T08:33:14;10.60;99.90
935;DHT22;454;53.254;10.400;2023-10-09T08:35:59;10.70;99.90
935;DHT22;454;53.254;10.400;2023-10-09T08:38:30;10.70;99.90
935;DHT22;454;53.254;10.400;2023-10-09T08:41:06;10.70;99.90
935;DHT22;454;53.254;10.400;2023-10-09T08:43:47;10.80;99.90
935;DHT22;454;53.254;10.400;2023-10-09T08:46:19;10.80;99.90
935;DHT22;454;53.254;10.400;2023-10-09T08:48:46;10.80;99.90
935;DHT22;454;53.254;10.400;2023-10-09T08:51:14;10.80;99.90
935;DHT22;454;53.254;10.400;2023-10-09T08:53:43;10.80;99.90
935;DHT22;454;53.254;10.400;2023-10-09T08:56:11;10.80;99.90
935;DHT22;454;53.254;10.400;2023-10-09T08:58:40;10.90;99.90
935;DHT22;454;53.254;10.400;2023-10-09T09:01:07;10.90;99.90
935;DHT22;454;53.254;10.400;2023-10-09T09:03:41;10.90;99.90
935;DHT22;454;53.254;10.400;2023-10-09T09:06:09;11.00;99.90
935;DHT22;454;53.254;10.400;2023-10-09T09:08:36;11.00;99.90
935;DHT22;454;53.254;10.400;2023-10-09T09:11:12;11.00;99.90
935;DHT22;454;53.254;10.400;2023-10-09T09:13:40;11.10;99.90
935;DHT22;454;53.254;10.400;2023-10-09T09:16:17;11.10;99.90
935;DHT22;454;53.254;10.400;2023-10-09T09:18:53;11.00;99.90
935;DHT22;454;53.254;10.400;2023-10-09T09:21:26;11.00;99.90
935;DHT22;454;53.254;10.400;2023-10-09T09:23:55;11.00;99.90
935;DHT22;454;53.254;10.400;2023-10-09T09:26:33;11.10;99.90
935;DHT22;454;53.254;10.400;2023-10-09T09:29:03;11.10;99.90
935;DHT22;454;53.254;10.400;2023-10-09T09:31:31;11.10;99.90
935;DHT22;454;53.254;10.400;2023-10-09T09:34:05;11.10;99.90
935;DHT22;454;53.254;10.400;2023-10-09T09:36:50;11.20;99.90
935;DHT22;454;53.254;10.400;2023-10-09T09:39:22;11.20;99.90
935;DHT22;454;53.254;10.400;2023-10-09T09:41:58;11.20;99.90
935;DHT22;454;53.254;10.400;2023-10-09T09:44:33;11.20;99.90
935;DHT22;454;53.254;10.400;2023-10-09T09:47:09;11.20;99.90
935;DHT22;454;53.254;10.400;2023-10-09T09:49:41;11.30;99.90
935;DHT22;454;53.254;10.400;2023-10-09T09:52:08;11.30;99.90
935;DHT22;454;53.254;10.400;2023-10-09T09:54:37;11.30;99.90
935;DHT22;454;53.254;10.400;2023-10-09T09:57:05;11.30;99.90
935;DHT22;454;53.254;10.400;2023-10-09T09:59:38;11.30;99.90
935;DHT22;454;53.254;10.400;2023-10-09T10:02:18;11.30;99.90
935;DHT22;454;53.254;10.400;2023-10-09T10:04:53;11.40;99.90
935;DHT22;454;53.254;10.400;2023-10-09T10:07:22;11.40;99.90
935;DHT22;454;53.254;10.400;2023-10-09T10:09:50;11.40;99.90
935;DHT22;454;53.254;10.400;2023-10-09T10:12:48;11.40;99.90
935;DHT22;454;53.254;10.400;2023-10-09T10:15:57;11.40;99.90
935;DHT22;454;53.254;10.400;2023-10-09T10:18:30;11.50;99.90
935;DHT22;454;53.254;10.400;2023-10-09T10:21:11;11.50;99.90
935;DHT22;454;53.254;10.400;2023-10-09T10:23:43;11.50;99.90
935;DHT22;454;53.254;10.400;2023-10-09T10:26:17;11.60;99.90
935;DHT22;454;53.254;10.400;2023-10-09T10:29:13;11.50;99.90
935;DHT22;454;53.254;10.400;2023-10-09T10:31:55;11.60;99.90
935;DHT22;454;53.254;10.400;2023-10-09T10:34:22;11.60;99.90
935;DHT22;454;53.254;10.400;2023-10-09T10:36:51;11.60;99.90
935;DHT22;454;53.254;10.400;2023-10-09T10:39:24;11.60;99.90
935;DHT22;454;53.254;10.400;2023-10-09T10:42:08;11.60;99.90
935;DHT22;454;53.254;10.400;2023-10-09T10:44:40;11.60;99.90
935;DHT22;454;53.254;10.400;2023-10-09T10:47:10;11.60;99.90
935;DHT22;454;53.254;10.400;2023-10-09T10:49:53;11.70;99.90
935;DHT22;454;53.254;10.400;2023-10-09T10:52:26;11.70;99.90
935;DHT22;454;53.254;10.400;2023-10-09T10:55:08;11.80;99.90
935;DHT22;454;53.254;10.400;2023-10-09T10:57:44;11.80;99.90
935;DHT22;454;53.254;10.400;2023-10-09T11:00:26;11.80;99.90
935;DHT22;454;53.254;10.400;2023-10-09T11:03:17;11.80;99.90
935;DHT22;454;53.254;10.400;2023-10-09T11:05:49;11.80;99.90
935;DHT22;454;53.254;10.400;2023-10-09T11:08:23;11.90;99.90
935;DHT22;454;53.254;10.400;2023-10-09T11:10:52;11.90;99.90
935;DHT22;454;53.254;10.400;2023-10-09T11:13:24;12.00;99.90
935;DHT22;454;53.254;10.400;2023-10-09T11:16:00;12.00;99.90
935;DHT22;454;53.254;10.400;2023-10-09T11:18:54;12.10;99.90
935;DHT22;454;53.254;10.400;2023-10-09T11:21:23;12.20;99.90
935;DHT22;454;53.254;10.400;2023-10-09T11:23:59;12.20;99.90
935;DHT22;454;53.254;10.400;2023-10-09T11:26:46;12.20;99.90
935;DHT22;454;53.254;10.400;2023-10-09T11:29:19;12.10;99.90
935;DHT22;454;53.254;10.400;2023-10-09T11:32:02;12.20;99.90
935;DHT22;454;53.254;10.400;2023-10-09T11:34:30;12.20;99.90
935;DHT22;454;53.254;10.400;2023-10-09T11:36:58;12.20;99.90
935;DHT22;454;53.254;10.400;2023-10-09T11:39:28;12.20;99.90
935;DHT22;454;53.254;10.400;2023-10-09T11:42:05;12.20;99.90
935;DHT22;454;53.254;10.400;2023-10-09T11:44:36;12.20;99.90
935;DHT22;454;53.254;10.400;2023-10-09T11:47:05;12.20;99.90
935;DHT22;454;53.254;10.400;2023-10-09T11:49:51;12.30;99.90
935;DHT22;454;53.254;10.400;2023-10-09T11:52:28;12.30;99.90
935;DHT22;454;53.254;10.400;2023-10-09T11:55:06;12.30;99.90
935;DHT22;454;53.254;10.400;2023-10-09T11:57:32;12.40;99.90
935;DHT22;454;53.254;10.400;2023-10-09T12:00:01;12.40;99.90
935;DHT22;454;53.254;10.400;2023-10-09T12:02:36;12.40;99.90
935;DHT22;454;53.254;10.400;2023-10-09T12:05:10;12.50;99.90
935;DHT22;454;53.254;10.400;2023-10-09T12:07:42;12.40;99.90
935;DHT22;454;53.254;10.400;2023-10-09T12:10:11;12.40;99.90
935;DHT22;454;53.254;10.400;2023-10-09T12:12:39;12.40;99.90
935;DHT22;454;53.254;10.400;2023-10-09T12:15:07;12.30;99.90
935;DHT22;454;53.254;10.400;2023-10-09T12:17:42;12.40;99.90
935;DHT22;454;53.254;10.400;2023-10-09T12:20:10;12.40;99.90
935;DHT22;454;53.254;10.400;2023-10-09T12:22:40;12.40;99.90
935;DHT22;454;53.254;10.400;2023-10-09T12:25:07;12.40;99.90
935;DHT22;454;53.254;10.400;2023-10-09T12:27:36;12.40;99.90
935;DHT22;454;53.254;10.400;2023-10-09T12:30:03;12.40;99.90
935;DHT22;454;53.254;10.400;2023-10-09T12:32:30;12.40;99.90
935;DHT22;454;53.254;10.400;2023-10-09T12:35:01;12.40;99.90
935;DHT22;454;53.254;10.400;2023-10-09T12:37:28;12.40;99.90
935;DHT22;454;53.254;10.400;2023-10-09T12:39:56;12.40;99.90
935;DHT22;454;53.254;10.400;2023-10-09T12:42:23;12.40;99.90
935;DHT22;454;53.254;10.400;2023-10-09T12:44:51;12.50;99.90
935;DHT22;454;53.254;10.400;2023-10-09T12:47:18;12.60;99.90
935;DHT22;454;53.254;10.400;2023-10-09T12:49:44;12.60;99.90
935;DHT22;454;53.254;10.400;2023-10-09T12:52:11;12.60;99.90
935;DHT22;454;53.254;10.400;2023-10-09T12:54:41;12.70;99.90
935;DHT22;454;53.254;10.400;2023-10-09T12:57:09;12.70;99.90
935;DHT22;454;53.254;10.400;2023-10-09T12:59:39;12.80;99.90
935;DHT22;454;53.254;10.400;2023-10-09T13:02:12;12.90;99.90
935;DHT22;454;53.254;10.400;2023-10-09T13:04:39;12.90;99.90
935;DHT22;454;53.254;10.400;2023-10-09T13:07:07;13.00;99.90
935;DHT22;454;53.254;10.400;2023-10-09T13:09:34;13.00;99.90
935;DHT22;454;53.254;10.400;2023-10-09T13:12:08;13.00;99.90
935;DHT22;454;53.254;10.400;2023-10-09T13:14:34;13.10;99.90
935;DHT22;454;53.254;10.400;2023-10-09T13:17:01;13.10;99.90
935;DHT22;454;53.254;10.400;2023-10-09T13:19:35;13.00;99.90
935;DHT22;454;53.254;10.400;2023-10-09T13:22:02;13.00;99.90
935;DHT22;454;53.254;10.400;2023-10-09T13:24:29;13.00;99.90
935;DHT22;454;53.254;10.400;2023-10-09T13:26:56;13.00;99.90
935;DHT22;454;53.254;10.400;2023-10-09T13:29:24;13.00;99.90
935;DHT22;454;53.254;10.400;2023-10-09T13:31:51;13.00;99.90
935;DHT22;454;53.254;10.400;2023-10-09T13:34:23;13.10;99.90
935;DHT22;454;53.254;10.400;2023-10-09T13:36:54;13.10;99.90
935;DHT22;454;53.254;10.400;2023-10-09T13:39:24;13.10;99.90
935;DHT22;454;53.254;10.400;2023-10-09T13:41:53;13.10;99.90
935;DHT22;454;53.254;10.400;2023-10-09T13:44:23;13.10;99.90
935;DHT22;454;53.254;10.400;2023-10-09T13:46:52;13.10;99.90
935;DHT22;454;53.254;10.400;2023-10-09T13:49:18;13.20;99.90
935;DHT22;454;53.254;10.400;2023-10-09T13:51:48;13.30;99.90
935;DHT22;454;53.254;10.400;2023-10-09T13:54:17;13.40;99.90
935;DHT22;454;53.254;10.400;2023-10-09T13:56:47;13.40;99.90
935;DHT22;454;53.254;10.400;2023-10-09T13:59:18;13.40;99.90
935;DHT22;454;53.254;10.400;2023-10-09T14:01:46;13.40;99.90
935;DHT22;454;53.254;10.400;2023-10-09T14:04:14;13.50;99.90
935;DHT22;454;53.254;10.400;2023-10-09T14:06:44;13.60;99.90
935;DHT22;454;53.254;10.400;2023-10-09T14:09:11;13.60;99.90
935;DHT22;454;53.254;10.400;2023-10-09T14:11:55;13.60;99.90
935;DHT22;454;53.254;10.400;2023-10-09T14:14:32;13.60;99.90
935;DHT22;454;53.254;10.400;2023-10-09T14:16:59;13.60;99.90
935;DHT22;454;53.254;10.400;2023-10-09T14:19:26;13.60;99.90
935;DHT22;454;53.254;10.400;2023-10-09T14:21:58;13.60;99.90
935;DHT22;454;53.254;10.400;2023-10-09T14:24:25;13.60;99.90
935;DHT22;454;53.254;10.400;2023-10-09T14:26:59;13.50;99.90
935;DHT22;454;53.254;10.400;2023-10-09T14:29:29;13.60;99.90
935;DHT22;454;53.254;10.400;2023-10-09T14:31:56;13.60;99.90
935;DHT22;454;53.254;10.400;2023-10-09T14:34:26;13.60;99.90
935;DHT22;454;53.254;10.400;2023-10-09T14:36:58;13.70;99.90
935;DHT22;454;53.254;10.400;2023-10-09T14:39:25;13.70;99.90
935;DHT22;454;53.254;10.400;2023-10-09T14:41:52;13.70;99.90
935;DHT22;454;53.254;10.400;2023-10-09T14:44:21;13.70;99.90
935;DHT22;454;53.254;10.400;2023-10-09T14:46:49;13.70;99.90
935;DHT22;454;53.254;10.400;2023-10-09T14:49:16;13.70;99.90
935;DHT22;454;53.254;10.400;2023-10-09T14:51:47;13.70;99.90
935;DHT22;454;53.254;10.400;2023-10-09T14:54:13;13.70;99.90
935;DHT22;454;53.254;10.400;2023-10-09T14:56:43;13.70;99.90
935;DHT22;454;53.254;10.400;2023-10-09T14:59:11;13.80;99.90
935;DHT22;454;53.254;10.400;2023-10-09T15:01:39;13.70;99.90
935;DHT22;454;53.254;10.400;2023-10-09T15:04:06;13.80;99.90
935;DHT22;454;53.254;10.400;2023-10-09T15:06:36;13.80;99.90
935;DHT22;454;53.254;10.400;2023-10-09T15:09:03;13.80;99.90
935;DHT22;454;53.254;10.400;2023-10-09T15:11:35;13.80;99.90
935;DHT22;454;53.254;10.400;2023-10-09T15:14:04;13.90;99.90
935;DHT22;454;53.254;10.400;2023-10-09T15:16:32;13.90;99.90
935;DHT22;454;53.254;10.400;2023-10-09T15:19:00;13.80;99.90
935;DHT22;454;53.254;10.400;2023-10-09T15:21:28;13.80;99.90
935;DHT22;454;53.254;10.400;2023-10-09T15:23:58;13.90;99.90
935;DHT22;454;53.254;10.400;2023-10-09T15:26:25;13.90;99.90
935;DHT22;454;53.254;10.400;2023-10-09T15:28:59;13.90;99.90
935;DHT22;454;53.254;10.400;2023-10-09T15:31:30;13.90;99.90
935;DHT22;454;53.254;10.400;2023-10-09T15:33:57;13.90;99.90
935;DHT22;454;53.254;10.400;2023-10-09T15:36:26;14.00;99.90
935;DHT22;454;53.254;10.400;2023-10-09T15:38:54;14.00;99.90
935;DHT22;454;53.254;10.400;2023-10-09T15:41:26;14.00;99.90
935;DHT22;454;53.254;10.400;2023-10-09T15:43:55;14.00;99.90
935;DHT22;454;53.254;10.400;2023-10-09T15:46:25;14.00;99.90
935;DHT22;454;53.254;10.400;2023-10-09T15:48:52;14.00;99.90
935;DHT22;454;53.254;10.400;2023-10-09T15:51:21;14.00;99.90
935;DHT22;454;53.254;10.400;2023-10-09T15:53:49;14.00;99.90
935;DHT22;454;53.254;10.400;2023-10-09T15:56:17;14.00;99.90
935;DHT22;454;53.254;10.400;2023-10-09T15:58:44;14.00;99.90
935;DHT22;454;53.254;10.400;2023-10-09T16:01:12;14.00;99.90
935;DHT22;454;53.254;10.400;2023-10-09T16:03:40;14.00;99.90
935;DHT22;454;53.254;10.400;2023-10-09T16:06:07;14.00;99.90
935;DHT22;454;53.254;10.400;2023-10-09T16:08:37;14.10;99.90
935;DHT22;454;53.254;10.400;2023-10-09T16:11:05;14.10;99.90
935;DHT22;454;53.254;10.400;2023-10-09T16:13:33;14.10;99.90
935;DHT22;454;53.254;10.400;2023-10-09T16:16:01;14.10;99.90
935;DHT22;454;53.254;10.400;2023-10-09T16:18:33;14.10;99.90
935;DHT22;454;53.254;10.400;2023-10-09T16:21:00;14.10;99.90
935;DHT22;454;53.254;10.400;2023-10-09T16:23:29;14.10;99.90
935;DHT22;454;53.254;10.400;2023-10-09T16:25:56;14.10;99.90
935;DHT22;454;53.254;10.400;2023-10-09T16:28:26;14.20;99.90
935;DHT22;454;53.254;10.400;2023-10-09T16:30:53;14.10;99.90
935;DHT22;454;53.254;10.400;2023-10-09T16:33:21;14.10;99.90
935;DHT22;454;53.254;10.400;2023-10-09T16:35:49;14.10;99.90
935;DHT22;454;53.254;10.400;2023-10-09T16:38:20;14.10;99.90
935;DHT22;454;53.254;10.400;2023-10-09T16:40:52;14.10;99.90
935;DHT22;454;53.254;10.400;2023-10-09T16:43:20;14.10;99.90
935;DHT22;454;53.254;10.400;2023-10-09T16:45:53;14.10;99.90
935;DHT22;454;53.254;10.400;2023-10-09T16:48:23;14.10;99.90
935;DHT22;454;53.254;10.400;2023-10-09T16:50:54;14.10;99.90
935;DHT22;454;53.254;10.400;2023-10-09T16:53:21;14.10;99.90
935;DHT22;454;53.254;10.400;2023-10-09T16:55:48;14.10;99.90
935;DHT22;454;53.254;10.400;2023-10-09T16:58:15;14.10;99.90
935;DHT22;454;53.254;10.400;2023-10-09T17:00:42;14.10;99.90
935;DHT22;454;53.254;10.400;2023-10-09T17:03:12;14.20;99.90
935;DHT22;454;53.254;10.400;2023-10-09T17:05:40;14.10;99.90
935;DHT22;454;53.254;10.400;2023-10-09T17:08:20;14.20;99.90
935;DHT22;454;53.254;10.400;2023-10-09T17:10:48;14.20;99.90
935;DHT22;454;53.254;10.400;2023-10-09T17:13:16;14.20;99.90
935;DHT22;454;53.254;10.400;2023-10-09T17:15:47;14.20;99.90
935;DHT22;454;53.254;10.400;2023-10-09T17:18:20;14.20;99.90
935;DHT22;454;53.254;10.400;2023-10-09T17:20:47;14.30;99.90
935;DHT22;454;53.254;10.400;2023-10-09T17:23:15;14.30;99.90
935;DHT22;454;53.254;10.400;2023-10-09T17:25:42;14.30;99.90
935;DHT22;454;53.254;10.400;2023-10-09T17:28:10;14.40;99.90
935;DHT22;454;53.254;10.400;2023-10-09T17:30:40;14.40;99.90
935;DHT22;454;53.254;10.400;2023-10-09T17:33:07;14.50;99.90
935;DHT22;454;53.254;10.400;2023-10-09T17:35:35;14.40;99.90
935;DHT22;454;53.254;10.400;2023-10-09T17:38:02;14.50;99.90
935;DHT22;454;53.254;10.400;2023-10-09T17:40:29;14.50;99.90
935;DHT22;454;53.254;10.400;2023-10-09T17:42:57;14.50;99.90
935;DHT22;454;53.254;10.400;2023-10-09T17:45:24;14.50;99.90
935;DHT22;454;53.254;10.400;2023-10-09T17:47:51;14.50;99.90
935;DHT22;454;53.254;10.400;2023-10-09T17:50:18;14.60;99.90
935;DHT22;454;53.254;10.400;2023-10-09T17:52:48;14.60;99.90
935;DHT22;454;53.254;10.400;2023-10-09T17:55:15;14.60;99.90
935;DHT22;454;53.254;10.400;2023-10-09T17:57:43;14.60;99.90
935;DHT22;454;53.254;10.400;2023-10-09T18:00:10;14.60;99.90
935;DHT22;454;53.254;10.400;2023-10-09T18:02:47;14.60;99.90
935;DHT22;454;53.254;10.400;2023-10-09T18:05:14;14.70;99.90
935;DHT22;454;53.254;10.400;2023-10-09T18:07:40;14.70;99.90
935;DHT22;454;53.254;10.400;2023-10-09T18:10:10;14.70;99.90
935;DHT22;454;53.254;10.400;2023-10-09T18:12:42;14.70;99.90
935;DHT22;454;53.254;10.400;2023-10-09T18:15:09;14.70;99.90
935;DHT22;454;53.254;10.400;2023-10-09T18:17:38;14.70;99.90
935;DHT22;454;53.254;10.400;2023-10-09T18:20:06;14.70;99.90
935;DHT22;454;53.254;10.400;2023-10-09T18:22:33;14.70;99.90
935;DHT22;454;53.254;10.400;2023-10-09T18:25:01;14.60;99.90
935;DHT22;454;53.254;10.400;2023-10-09T18:27:29;14.60;99.90
935;DHT22;454;53.254;10.400;2023-10-09T18:29:55;14.60;99.90
935;DHT22;454;53.254;10.400;2023-10-09T18:32:23;14.50;99.90
935;DHT22;454;53.254;10.400;2023-10-09T18:34:50;14.50;99.90
935;DHT22;454;53.254;10.400;2023-10-09T18:37:17;14.50;99.90
935;DHT22;454;53.254;10.400;2023-10-09T18:39:45;14.50;99.90
935;DHT22;454;53.254;10.400;2023-10-09T18:42:12;14.50;99.90
935;DHT22;454;53.254;10.400;2023-10-09T18:44:40;14.40;99.90
935;DHT22;454;53.254;10.400;2023-10-09T18:47:07;14.40;99.90
935;DHT22;454;53.254;10.400;2023-10-09T18:49:34;14.30;99.90
935;DHT22;454;53.254;10.400;2023-10-09T18:52:03;14.30;99.90
935;DHT22;454;53.254;10.400;2023-10-09T18:54:31;14.20;99.90
935;DHT22;454;53.254;10.400;2023-10-09T18:57:01;14.30;99.90
935;DHT22;454;53.254;10.400;2023-10-09T18:59:28;14.20;99.90
935;DHT22;454;53.254;10.400;2023-10-09T19:01:56;14.20;99.90
935;DHT22;454;53.254;10.400;2023-10-09T19:04:24;14.30;99.90
935;DHT22;454;53.254;10.400;2023-10-09T19:06:50;14.20;99.90
935;DHT22;454;53.254;10.400;2023-10-09T19:09:17;14.20;99.90
935;DHT22;454;53.254;10.400;2023-10-09T19:11:48;14.20;99.90
935;DHT22;454;53.254;10.400;2023-10-09T19:14:14;14.30;99.90
935;DHT22;454;53.254;10.400;2023-10-09T19:16:43;14.30;99.90
935;DHT22;454;53.254;10.400;2023-10-09T19:19:12;14.20;99.90
935;DHT22;454;53.254;10.400;2023-10-09T19:21:38;14.20;99.90
935;DHT22;454;53.254;10.400;2023-10-09T19:24:05;14.20;99.90
935;DHT22;454;53.254;10.400;2023-10-09T19:26:37;14.20;99.90
935;DHT22;454;53.254;10.400;2023-10-09T19:29:04;14.20;99.90
935;DHT22;454;53.254;10.400;2023-10-09T19:31:32;14.20;99.90
935;DHT22;454;53.254;10.400;2023-10-09T19:33:59;14.20;99.90
935;DHT22;454;53.254;10.400;2023-10-09T19:36:27;14.20;99.90
935;DHT22;454;53.254;10.400;2023-10-09T19:38:54;14.20;99.90
935;DHT22;454;53.254;10.400;2023-10-09T19:41:22;14.20;99.90
935;DHT22;454;53.254;10.400;2023-10-09T19:43:50;14.20;99.90
935;DHT22;454;53.254;10.400;2023-10-09T19:46:17;14.20;99.90
935;DHT22;454;53.254;10.400;2023-10-09T19:48:44;14.30;99.90
935;DHT22;454;53.254;10.400;2023-10-09T19:51:12;14.20;99.90
935;DHT22;454;53.254;10.400;2023-10-09T19:53:40;14.20;99.90
935;DHT22;454;53.254;10.400;2023-10-09T19:56:07;14.20;99.90
935;DHT22;454;53.254;10.400;2023-10-09T19:58:36;14.30;99.90
935;DHT22;454;53.254;10.400;2023-10-09T20:01:06;14.20;99.90
935;DHT22;454;53.254;10.400;2023-10-09T20:03:33;14.20;99.90
935;DHT22;454;53.254;10.400;2023-10-09T20:06:02;14.30;99.90
935;DHT22;454;53.254;10.400;2023-10-09T20:08:29;14.30;99.90
935;DHT22;454;53.254;10.400;2023-10-09T20:11:03;14.30;99.90
935;DHT22;454;53.254;10.400;2023-10-09T20:13:31;14.30;99.90
935;DHT22;454;53.254;10.400;2023-10-09T20:15:59;14.30;99.90
935;DHT22;454;53.254;10.400;2023-10-09T20:18:26;14.30;99.90
935;DHT22;454;53.254;10.400;2023-10-09T20:20:58;14.30;99.90
935;DHT22;454;53.254;10.400;2023-10-09T20:23:25;14.30;99.90
935;DHT22;454;53.254;10.400;2023-10-09T20:25:59;14.30;99.90
935;DHT22;454;53.254;10.400;2023-10-09T20:28:27;14.30;99.90
935;DHT22;454;53.254;10.400;2023-10-09T20:30:54;14.30;99.90
935;DHT22;454;53.254;10.400;2023-10-09T20:33:24;14.30;99.90
935;DHT22;454;53.254;10.400;2023-10-09T20:35:51;14.30;99.90
935;DHT22;454;53.254;10.400;2023-10-09T20:38:21;14.30;99.90
935;DHT22;454;53.254;10.400;2023-10-09T20:40:51;14.30;99.90
935;DHT22;454;53.254;10.400;2023-10-09T20:43:19;14.30;99.90
935;DHT22;454;53.254;10.400;2023-10-09T20:45:46;14.30;99.90
935;DHT22;454;53.254;10.400;2023-10-09T20:48:13;14.30;99.90
935;DHT22;454;53.254;10.400;2023-10-09T20:50:42;14.30;99.90